sensor_id;sensor_type;location;lat;lon;timestamp;P1;durP1;ratioP1;P2;durP2;ratioP2
63975;SDS011;50167;47.958;21.780;2023-04-25T00:00:28;12.10;;;10.70;;
63975;SDS011;50167;47.958;21.780;2023-04-25T00:02:54;12.67;;;10.97;;
63975;SDS011;50167;47.958;21.780;2023-04-25T00:05:25;14.23;;;11.48;;
63975;SDS011;50167;47.958;21.780;2023-04-25T00:07:52;12.33;;;10.10;;
63975;SDS011;50167;47.958;21.780;2023-04-25T00:10:19;10.43;;;9.17;;
63975;SDS011;50167;47.958;21.780;2023-04-25T00:12:46;12.17;;;10.53;;
63975;SDS011;50167;47.958;21.780;2023-04-25T00:15:13;18.63;;;11.70;;
63975;SDS011;50167;47.958;21.780;2023-04-25T00:17:41;17.33;;;11.87;;
63975;SDS011;50167;47.958;21.780;2023-04-25T00:20:07;15.80;;;11.03;;
63975;SDS011;50167;47.958;21.780;2023-04-25T00:22:35;13.07;;;10.97;;
63975;SDS011;50167;47.958;21.780;2023-04-25T00:25:05;13.27;;;10.77;;
63975;SDS011;50167;47.958;21.780;2023-04-25T00:27:32;9.83;;;8.83;;
63975;SDS011;50167;47.958;21.780;2023-04-25T00:29:59;12.73;;;10.27;;
63975;SDS011;50167;47.958;21.780;2023-04-25T00:32:26;14.93;;;10.57;;
63975;SDS011;50167;47.958;21.780;2023-04-25T00:34:52;11.37;;;10.17;;
63975;SDS011;50167;47.958;21.780;2023-04-25T00:37:18;12.40;;;10.30;;
63975;SDS011;50167;47.958;21.780;2023-04-25T00:39:45;14.30;;;10.63;;
63975;SDS011;50167;47.958;21.780;2023-04-25T00:42:11;13.60;;;10.67;;
63975;SDS011;50167;47.958;21.780;2023-04-25T00:44:38;15.63;;;10.80;;
63975;SDS011;50167;47.958;21.780;2023-04-25T00:47:05;11.07;;;9.97;;
63975;SDS011;50167;47.958;21.780;2023-04-25T00:49:32;12.50;;;9.90;;
63975;SDS011;50167;47.958;21.780;2023-04-25T00:51:58;11.23;;;10.00;;
63975;SDS011;50167;47.958;21.780;2023-04-25T00:54:25;10.87;;;9.63;;
63975;SDS011;50167;47.958;21.780;2023-04-25T00:56:52;11.33;;;10.07;;
63975;SDS011;50167;47.958;21.780;2023-04-25T00:59:19;13.13;;;10.33;;
63975;SDS011;50167;47.958;21.780;2023-04-25T01:01:46;11.53;;;10.23;;
63975;SDS011;50167;47.958;21.780;2023-04-25T01:04:12;13.27;;;9.80;;
63975;SDS011;50167;47.958;21.780;2023-04-25T01:06:39;13.80;;;10.67;;
63975;SDS011;50167;47.958;21.780;2023-04-25T01:09:06;11.90;;;10.57;;
63975;SDS011;50167;47.958;21.780;2023-04-25T01:11:33;12.07;;;10.83;;
63975;SDS011;50167;47.958;21.780;2023-04-25T01:13:59;12.30;;;11.00;;
63975;SDS011;50167;47.958;21.780;2023-04-25T01:16:27;14.87;;;11.83;;
63975;SDS011;50167;47.958;21.780;2023-04-25T01:18:53;14.97;;;11.77;;
63975;SDS011;50167;47.958;21.780;2023-04-25T01:21:20;13.43;;;10.07;;
63975;SDS011;50167;47.958;21.780;2023-04-25T01:23:47;15.60;;;10.63;;
63975;SDS011;50167;47.958;21.780;2023-04-25T01:26:13;11.17;;;9.37;;
63975;SDS011;50167;47.958;21.780;2023-04-25T01:28:40;14.27;;;11.47;;
63975;SDS011;50167;47.958;21.780;2023-04-25T01:31:06;14.73;;;9.33;;
63975;SDS011;50167;47.958;21.780;2023-04-25T01:33:33;11.93;;;10.63;;
63975;SDS011;50167;47.958;21.780;2023-04-25T01:35:59;12.43;;;11.10;;
63975;SDS011;50167;47.958;21.780;2023-04-25T01:38:25;12.33;;;10.97;;
63975;SDS011;50167;47.958;21.780;2023-04-25T01:40:52;14.73;;;11.27;;
63975;SDS011;50167;47.958;21.780;2023-04-25T01:43:20;13.17;;;11.17;;
63975;SDS011;50167;47.958;21.780;2023-04-25T01:45:46;11.73;;;10.53;;
63975;SDS011;50167;47.958;21.780;2023-04-25T01:48:15;11.70;;;9.33;;
63975;SDS011;50167;47.958;21.780;2023-04-25T01:50:41;10.13;;;9.13;;
63975;SDS011;50167;47.958;21.780;2023-04-25T01:53:09;13.27;;;10.20;;
63975;SDS011;50167;47.958;21.780;2023-04-25T01:55:37;12.43;;;10.37;;
63975;SDS011;50167;47.958;21.780;2023-04-25T01:58:03;10.70;;;9.27;;
63975;SDS011;50167;47.958;21.780;2023-04-25T02:00:32;10.80;;;9.70;;
63975;SDS011;50167;47.958;21.780;2023-04-25T02:02:58;12.10;;;10.27;;
63975;SDS011;50167;47.958;21.780;2023-04-25T02:05:24;11.50;;;9.70;;
63975;SDS011;50167;47.958;21.780;2023-04-25T02:07:50;12.47;;;11.17;;
63975;SDS011;50167;47.958;21.780;2023-04-25T02:10:17;14.07;;;10.00;;
63975;SDS011;50167;47.958;21.780;2023-04-25T02:12:43;15.00;;;10.57;;
63975;SDS011;50167;47.958;21.780;2023-04-25T02:15:09;11.80;;;10.60;;
63975;SDS011;50167;47.958;21.780;2023-04-25T02:17:36;11.90;;;10.70;;
63975;SDS011;50167;47.958;21.780;2023-04-25T02:20:03;14.13;;;10.50;;
63975;SDS011;50167;47.958;21.780;2023-04-25T02:22:30;11.87;;;10.63;;
63975;SDS011;50167;47.958;21.780;2023-04-25T02:24:57;12.30;;;10.43;;
63975;SDS011;50167;47.958;21.780;2023-04-25T02:27:23;11.90;;;9.43;;
63975;SDS011;50167;47.958;21.780;2023-04-25T02:29:49;12.40;;;9.83;;
63975;SDS011;50167;47.958;21.780;2023-04-25T02:32:17;11.60;;;9.53;;
63975;SDS011;50167;47.958;21.780;2023-04-25T02:34:44;12.10;;;9.60;;
63975;SDS011;50167;47.958;21.780;2023-04-25T02:37:10;11.40;;;9.77;;
63975;SDS011;50167;47.958;21.780;2023-04-25T02:39:36;12.43;;;9.17;;
63975;SDS011;50167;47.958;21.780;2023-04-25T02:42:02;11.60;;;9.20;;
63975;SDS011;50167;47.958;21.780;2023-04-25T02:44:29;13.20;;;8.70;;
63975;SDS011;50167;47.958;21.780;2023-04-25T02:46:55;12.60;;;10.13;;
63975;SDS011;50167;47.958;21.780;2023-04-25T02:49:21;11.57;;;10.37;;
63975;SDS011;50167;47.958;21.780;2023-04-25T02:51:48;13.97;;;11.63;;
63975;SDS011;50167;47.958;21.780;2023-04-25T02:54:14;12.80;;;9.90;;
63975;SDS011;50167;47.958;21.780;2023-04-25T02:56:40;11.80;;;10.53;;
63975;SDS011;50167;47.958;21.780;2023-04-25T02:59:06;11.33;;;10.13;;
63975;SDS011;50167;47.958;21.780;2023-04-25T03:01:32;11.10;;;9.90;;
63975;SDS011;50167;47.958;21.780;2023-04-25T03:03:58;10.77;;;9.37;;
63975;SDS011;50167;47.958;21.780;2023-04-25T03:06:24;11.23;;;9.70;;
63975;SDS011;50167;47.958;21.780;2023-04-25T03:08:51;12.50;;;9.97;;
63975;SDS011;50167;47.958;21.780;2023-04-25T03:11:17;11.13;;;9.50;;
63975;SDS011;50167;47.958;21.780;2023-04-25T03:13:45;14.43;;;10.60;;
63975;SDS011;50167;47.958;21.780;2023-04-25T03:16:11;13.27;;;10.80;;
63975;SDS011;50167;47.958;21.780;2023-04-25T03:18:37;12.60;;;10.17;;
63975;SDS011;50167;47.958;21.780;2023-04-25T03:21:03;11.43;;;10.30;;
63975;SDS011;50167;47.958;21.780;2023-04-25T03:23:30;13.07;;;10.43;;
63975;SDS011;50167;47.958;21.780;2023-04-25T03:25:56;13.67;;;10.60;;
63975;SDS011;50167;47.958;21.780;2023-04-25T03:28:22;12.63;;;10.27;;
63975;SDS011;50167;47.958;21.780;2023-04-25T03:30:49;13.97;;;11.80;;
63975;SDS011;50167;47.958;21.780;2023-04-25T03:33:15;12.90;;;11.50;;
63975;SDS011;50167;47.958;21.780;2023-04-25T03:35:41;13.47;;;12.07;;
63975;SDS011;50167;47.958;21.780;2023-04-25T03:38:08;14.90;;;12.27;;
63975;SDS011;50167;47.958;21.780;2023-04-25T03:40:34;13.50;;;12.10;;
63975;SDS011;50167;47.958;21.780;2023-04-25T03:43:00;12.90;;;11.60;;
63975;SDS011;50167;47.958;21.780;2023-04-25T03:45:26;13.17;;;11.57;;
63975;SDS011;50167;47.958;21.780;2023-04-25T03:47:53;14.30;;;11.20;;
63975;SDS011;50167;47.958;21.780;2023-04-25T03:50:19;15.60;;;12.03;;
63975;SDS011;50167;47.958;21.780;2023-04-25T03:52:45;13.27;;;10.80;;
63975;SDS011;50167;47.958;21.780;2023-04-25T03:55:11;13.60;;;10.83;;
63975;SDS011;50167;47.958;21.780;2023-04-25T03:57:37;15.20;;;11.60;;
63975;SDS011;50167;47.958;21.780;2023-04-25T04:00:04;13.77;;;10.70;;
63975;SDS011;50167;47.958;21.780;2023-04-25T04:02:32;13.07;;;11.63;;
63975;SDS011;50167;47.958;21.780;2023-04-25T04:05:00;14.47;;;11.67;;
63975;SDS011;50167;47.958;21.780;2023-04-25T04:07:26;13.40;;;10.57;;
63975;SDS011;50167;47.958;21.780;2023-04-25T04:09:52;12.53;;;11.10;;
63975;SDS011;50167;47.958;21.780;2023-04-25T04:12:18;13.83;;;11.60;;
63975;SDS011;50167;47.958;21.780;2023-04-25T04:14:45;15.37;;;12.50;;
63975;SDS011;50167;47.958;21.780;2023-04-25T04:17:11;16.07;;;12.87;;
63975;SDS011;50167;47.958;21.780;2023-04-25T04:19:37;16.30;;;13.47;;
63975;SDS011;50167;47.958;21.780;2023-04-25T04:22:03;16.87;;;13.63;;
63975;SDS011;50167;47.958;21.780;2023-04-25T04:24:29;15.97;;;13.37;;
63975;SDS011;50167;47.958;21.780;2023-04-25T04:26:56;13.57;;;12.17;;
63975;SDS011;50167;47.958;21.780;2023-04-25T04:29:22;14.17;;;11.83;;
63975;SDS011;50167;47.958;21.780;2023-04-25T04:31:48;25.27;;;14.07;;
63975;SDS011;50167;47.958;21.780;2023-04-25T04:34:18;16.77;;;12.70;;
63975;SDS011;50167;47.958;21.780;2023-04-25T04:36:45;15.23;;;12.40;;
63975;SDS011;50167;47.958;21.780;2023-04-25T04:39:12;14.27;;;12.50;;
63975;SDS011;50167;47.958;21.780;2023-04-25T04:41:39;13.33;;;11.87;;
63975;SDS011;50167;47.958;21.780;2023-04-25T04:44:05;15.67;;;12.30;;
63975;SDS011;50167;47.958;21.780;2023-04-25T04:46:33;17.17;;;12.07;;
63975;SDS011;50167;47.958;21.780;2023-04-25T04:49:01;15.97;;;12.80;;
63975;SDS011;50167;47.958;21.780;2023-04-25T04:51:28;16.83;;;12.27;;
63975;SDS011;50167;47.958;21.780;2023-04-25T04:53:55;17.27;;;11.90;;
63975;SDS011;50167;47.958;21.780;2023-04-25T04:56:23;14.43;;;12.57;;
63975;SDS011;50167;47.958;21.780;2023-04-25T04:58:51;17.43;;;12.00;;
63975;SDS011;50167;47.958;21.780;2023-04-25T05:01:18;13.27;;;11.83;;
63975;SDS011;50167;47.958;21.780;2023-04-25T05:03:44;13.07;;;11.60;;
63975;SDS011;50167;47.958;21.780;2023-04-25T05:06:10;15.20;;;11.83;;
63975;SDS011;50167;47.958;21.780;2023-04-25T05:08:36;13.53;;;11.40;;
63975;SDS011;50167;47.958;21.780;2023-04-25T05:11:02;15.10;;;12.03;;
63975;SDS011;50167;47.958;21.780;2023-04-25T05:13:29;13.67;;;12.27;;
63975;SDS011;50167;47.958;21.780;2023-04-25T05:15:55;14.77;;;11.50;;
63975;SDS011;50167;47.958;21.780;2023-04-25T05:18:21;14.90;;;13.17;;
63975;SDS011;50167;47.958;21.780;2023-04-25T05:20:48;14.23;;;12.83;;
63975;SDS011;50167;47.958;21.780;2023-04-25T05:23:14;13.20;;;11.80;;
63975;SDS011;50167;47.958;21.780;2023-04-25T05:25:40;15.47;;;12.07;;
63975;SDS011;50167;47.958;21.780;2023-04-25T05:28:07;12.37;;;11.10;;
63975;SDS011;50167;47.958;21.780;2023-04-25T05:30:33;14.23;;;12.10;;
63975;SDS011;50167;47.958;21.780;2023-04-25T05:33:00;13.40;;;11.63;;
63975;SDS011;50167;47.958;21.780;2023-04-25T05:35:27;12.40;;;10.30;;
63975;SDS011;50167;47.958;21.780;2023-04-25T05:37:53;13.50;;;11.07;;
63975;SDS011;50167;47.958;21.780;2023-04-25T05:40:19;13.10;;;10.10;;
63975;SDS011;50167;47.958;21.780;2023-04-25T05:42:45;12.83;;;10.53;;
63975;SDS011;50167;47.958;21.780;2023-04-25T05:45:11;13.17;;;10.37;;
63975;SDS011;50167;47.958;21.780;2023-04-25T05:47:38;12.60;;;10.90;;
63975;SDS011;50167;47.958;21.780;2023-04-25T05:50:05;12.47;;;11.07;;
63975;SDS011;50167;47.958;21.780;2023-04-25T05:52:33;11.03;;;9.90;;
63975;SDS011;50167;47.958;21.780;2023-04-25T05:55:00;11.90;;;9.40;;
63975;SDS011;50167;47.958;21.780;2023-04-25T05:57:26;10.70;;;9.60;;
63975;SDS011;50167;47.958;21.780;2023-04-25T05:59:53;17.70;;;10.50;;
63975;SDS011;50167;47.958;21.780;2023-04-25T06:02:20;13.77;;;9.93;;
63975;SDS011;50167;47.958;21.780;2023-04-25T06:04:47;12.07;;;10.87;;
63975;SDS011;50167;47.958;21.780;2023-04-25T06:07:16;12.90;;;11.10;;
63975;SDS011;50167;47.958;21.780;2023-04-25T06:09:44;16.00;;;10.60;;
63975;SDS011;50167;47.958;21.780;2023-04-25T06:12:10;11.70;;;10.07;;
63975;SDS011;50167;47.958;21.780;2023-04-25T06:14:36;11.80;;;10.47;;
63975;SDS011;50167;47.958;21.780;2023-04-25T06:17:03;17.00;;;11.20;;
63975;SDS011;50167;47.958;21.780;2023-04-25T06:19:35;11.33;;;10.23;;
63975;SDS011;50167;47.958;21.780;2023-04-25T06:22:00;10.93;;;9.83;;
63975;SDS011;50167;47.958;21.780;2023-04-25T06:24:27;12.30;;;11.00;;
63975;SDS011;50167;47.958;21.780;2023-04-25T06:26:54;13.23;;;11.20;;
63975;SDS011;50167;47.958;21.780;2023-04-25T06:29:20;15.10;;;12.07;;
63975;SDS011;50167;47.958;21.780;2023-04-25T06:31:46;17.43;;;15.30;;
63975;SDS011;50167;47.958;21.780;2023-04-25T06:34:12;13.80;;;12.40;;
63975;SDS011;50167;47.958;21.780;2023-04-25T06:36:38;19.03;;;11.53;;
63975;SDS011;50167;47.958;21.780;2023-04-25T06:39:06;14.70;;;11.03;;
63975;SDS011;50167;47.958;21.780;2023-04-25T06:41:34;11.53;;;10.03;;
63975;SDS011;50167;47.958;21.780;2023-04-25T06:44:00;12.70;;;10.47;;
63975;SDS011;50167;47.958;21.780;2023-04-25T06:46:27;17.40;;;11.83;;
63975;SDS011;50167;47.958;21.780;2023-04-25T06:48:53;13.17;;;11.33;;
63975;SDS011;50167;47.958;21.780;2023-04-25T06:51:19;12.63;;;11.27;;
63975;SDS011;50167;47.958;21.780;2023-04-25T06:53:46;12.30;;;10.90;;
63975;SDS011;50167;47.958;21.780;2023-04-25T06:56:12;12.20;;;11.00;;
63975;SDS011;50167;47.958;21.780;2023-04-25T06:58:38;11.87;;;9.83;;
63975;SDS011;50167;47.958;21.780;2023-04-25T07:01:04;15.50;;;11.60;;
63975;SDS011;50167;47.958;21.780;2023-04-25T07:03:30;11.23;;;9.70;;
63975;SDS011;50167;47.958;21.780;2023-04-25T07:05:56;15.57;;;11.90;;
63975;SDS011;50167;47.958;21.780;2023-04-25T07:08:22;12.93;;;10.23;;
63975;SDS011;50167;47.958;21.780;2023-04-25T07:10:49;13.13;;;10.93;;
63975;SDS011;50167;47.958;21.780;2023-04-25T07:13:15;10.43;;;9.37;;
63975;SDS011;50167;47.958;21.780;2023-04-25T07:15:41;13.00;;;10.03;;
63975;SDS011;50167;47.958;21.780;2023-04-25T07:18:09;14.67;;;9.47;;
63975;SDS011;50167;47.958;21.780;2023-04-25T07:20:35;11.47;;;10.03;;
63975;SDS011;50167;47.958;21.780;2023-04-25T07:23:01;12.07;;;10.87;;
63975;SDS011;50167;47.958;21.780;2023-04-25T07:25:28;12.20;;;10.53;;
63975;SDS011;50167;47.958;21.780;2023-04-25T07:27:56;14.63;;;11.30;;
63975;SDS011;50167;47.958;21.780;2023-04-25T07:30:22;13.50;;;10.47;;
63975;SDS011;50167;47.958;21.780;2023-04-25T07:32:49;11.20;;;9.37;;
63975;SDS011;50167;47.958;21.780;2023-04-25T07:35:16;13.20;;;9.00;;
63975;SDS011;50167;47.958;21.780;2023-04-25T07:37:44;12.77;;;9.30;;
63975;SDS011;50167;47.958;21.780;2023-04-25T07:40:10;10.47;;;9.37;;
63975;SDS011;50167;47.958;21.780;2023-04-25T07:42:37;13.20;;;10.47;;
63975;SDS011;50167;47.958;21.780;2023-04-25T07:45:03;12.70;;;9.83;;
63975;SDS011;50167;47.958;21.780;2023-04-25T07:47:30;12.27;;;10.53;;
63975;SDS011;50167;47.958;21.780;2023-04-25T07:49:57;10.40;;;9.40;;
63975;SDS011;50167;47.958;21.780;2023-04-25T07:52:24;10.43;;;8.97;;
63975;SDS011;50167;47.958;21.780;2023-04-25T07:54:50;10.13;;;7.93;;
63975;SDS011;50167;47.958;21.780;2023-04-25T07:57:16;10.07;;;8.80;;
63975;SDS011;50167;47.958;21.780;2023-04-25T07:59:43;15.47;;;9.13;;
63975;SDS011;50167;47.958;21.780;2023-04-25T08:02:09;11.67;;;10.03;;
63975;SDS011;50167;47.958;21.780;2023-04-25T08:04:36;11.60;;;8.97;;
63975;SDS011;50167;47.958;21.780;2023-04-25T08:07:02;11.40;;;10.20;;
63975;SDS011;50167;47.958;21.780;2023-04-25T08:09:28;11.60;;;10.40;;
63975;SDS011;50167;47.958;21.780;2023-04-25T08:11:56;11.00;;;9.90;;
63975;SDS011;50167;47.958;21.780;2023-04-25T08:14:22;14.70;;;11.00;;
63975;SDS011;50167;47.958;21.780;2023-04-25T08:16:48;14.37;;;11.70;;
63975;SDS011;50167;47.958;21.780;2023-04-25T08:19:15;12.67;;;10.60;;
63975;SDS011;50167;47.958;21.780;2023-04-25T08:21:41;14.77;;;11.90;;
63975;SDS011;50167;47.958;21.780;2023-04-25T08:24:07;15.17;;;10.50;;
63975;SDS011;50167;47.958;21.780;2023-04-25T08:26:34;11.87;;;10.67;;
63975;SDS011;50167;47.958;21.780;2023-04-25T08:29:02;15.47;;;12.23;;
63975;SDS011;50167;47.958;21.780;2023-04-25T08:31:28;13.97;;;12.40;;
63975;SDS011;50167;47.958;21.780;2023-04-25T08:33:55;13.33;;;11.87;;
63975;SDS011;50167;47.958;21.780;2023-04-25T08:36:21;13.47;;;12.07;;
63975;SDS011;50167;47.958;21.780;2023-04-25T08:38:48;20.87;;;13.33;;
63975;SDS011;50167;47.958;21.780;2023-04-25T08:41:14;13.23;;;11.87;;
63975;SDS011;50167;47.958;21.780;2023-04-25T08:43:42;14.07;;;11.77;;
63975;SDS011;50167;47.958;21.780;2023-04-25T08:46:11;16.33;;;12.17;;
63975;SDS011;50167;47.958;21.780;2023-04-25T08:48:38;16.07;;;12.33;;
63975;SDS011;50167;47.958;21.780;2023-04-25T08:51:08;15.00;;;13.13;;
63975;SDS011;50167;47.958;21.780;2023-04-25T08:53:39;16.20;;;14.40;;
63975;SDS011;50167;47.958;21.780;2023-04-25T08:56:08;17.77;;;14.73;;
63975;SDS011;50167;47.958;21.780;2023-04-25T08:58:38;20.17;;;14.90;;
63975;SDS011;50167;47.958;21.780;2023-04-25T09:01:04;13.80;;;12.50;;
63975;SDS011;50167;47.958;21.780;2023-04-25T09:03:31;16.67;;;13.90;;
63975;SDS011;50167;47.958;21.780;2023-04-25T09:05:58;14.93;;;13.27;;
63975;SDS011;50167;47.958;21.780;2023-04-25T09:08:25;20.37;;;13.53;;
63975;SDS011;50167;47.958;21.780;2023-04-25T09:10:52;17.37;;;13.93;;
63975;SDS011;50167;47.958;21.780;2023-04-25T09:13:24;15.80;;;14.10;;
63975;SDS011;50167;47.958;21.780;2023-04-25T09:15:54;18.90;;;15.03;;
63975;SDS011;50167;47.958;21.780;2023-04-25T09:18:32;18.10;;;15.33;;
63975;SDS011;50167;47.958;21.780;2023-04-25T09:21:10;17.03;;;15.17;;
63975;SDS011;50167;47.958;21.780;2023-04-25T09:23:41;21.13;;;16.07;;
63975;SDS011;50167;47.958;21.780;2023-04-25T09:26:13;19.33;;;17.43;;
63975;SDS011;50167;47.958;21.780;2023-04-25T09:28:44;21.17;;;15.17;;
63975;SDS011;50167;47.958;21.780;2023-04-25T09:31:20;21.47;;;16.03;;
63975;SDS011;50167;47.958;21.780;2023-04-25T09:33:50;4.57;;;3.77;;
63975;SDS011;50167;47.958;21.780;2023-04-25T09:36:26;3.60;;;2.37;;
63975;SDS011;50167;47.958;21.780;2023-04-25T09:38:53;4.03;;;2.93;;
63975;SDS011;50167;47.958;21.780;2023-04-25T09:41:23;7.73;;;3.43;;
63975;SDS011;50167;47.958;21.780;2023-04-25T09:43:50;5.00;;;3.22;;
63975;SDS011;50167;47.958;21.780;2023-04-25T09:46:16;5.53;;;2.70;;
63975;SDS011;50167;47.958;21.780;2023-04-25T09:48:47;3.83;;;2.20;;
63975;SDS011;50167;47.958;21.780;2023-04-25T09:51:16;6.30;;;1.87;;
63975;SDS011;50167;47.958;21.780;2023-04-25T09:53:45;2.50;;;1.20;;
63975;SDS011;50167;47.958;21.780;2023-04-25T09:56:15;1.77;;;1.00;;
63975;SDS011;50167;47.958;21.780;2023-04-25T09:58:41;2.97;;;1.53;;
63975;SDS011;50167;47.958;21.780;2023-04-25T10:01:09;6.23;;;1.47;;
63975;SDS011;50167;47.958;21.780;2023-04-25T10:03:37;3.83;;;1.40;;
63975;SDS011;50167;47.958;21.780;2023-04-25T10:06:09;2.53;;;1.57;;
63975;SDS011;50167;47.958;21.780;2023-04-25T10:08:40;3.00;;;1.10;;
63975;SDS011;50167;47.958;21.780;2023-04-25T10:11:08;3.27;;;1.20;;
63975;SDS011;50167;47.958;21.780;2023-04-25T10:13:35;4.83;;;0.90;;
63975;SDS011;50167;47.958;21.780;2023-04-25T10:16:02;1.83;;;0.93;;
63975;SDS011;50167;47.958;21.780;2023-04-25T10:18:30;1.17;;;0.80;;
63975;SDS011;50167;47.958;21.780;2023-04-25T10:20:59;1.40;;;1.00;;
63975;SDS011;50167;47.958;21.780;2023-04-25T10:23:29;7.53;;;1.75;;
63975;SDS011;50167;47.958;21.780;2023-04-25T10:25:57;2.63;;;1.27;;
63975;SDS011;50167;47.958;21.780;2023-04-25T10:28:24;1.57;;;0.80;;
63975;SDS011;50167;47.958;21.780;2023-04-25T10:31:00;6.37;;;1.10;;
63975;SDS011;50167;47.958;21.780;2023-04-25T10:33:37;1.77;;;0.90;;
63975;SDS011;50167;47.958;21.780;2023-04-25T10:36:14;0.80;;;0.77;;
63975;SDS011;50167;47.958;21.780;2023-04-25T10:38:43;10.13;;;1.50;;
63975;SDS011;50167;47.958;21.780;2023-04-25T10:41:11;1.37;;;1.00;;
63975;SDS011;50167;47.958;21.780;2023-04-25T10:43:39;2.53;;;0.90;;
63975;SDS011;50167;47.958;21.780;2023-04-25T10:46:18;2.17;;;1.10;;
63975;SDS011;50167;47.958;21.780;2023-04-25T10:53:56;5.30;;;1.00;;
63975;SDS011;50167;47.958;21.780;2023-04-25T10:56:31;1.33;;;1.00;;
63975;SDS011;50167;47.958;21.780;2023-04-25T10:59:12;3.90;;;1.23;;
63975;SDS011;50167;47.958;21.780;2023-04-25T11:01:47;3.07;;;1.30;;
63975;SDS011;50167;47.958;21.780;2023-04-25T11:10:02;9.37;;;1.13;;
63975;SDS011;50167;47.958;21.780;2023-04-25T11:12:30;2.47;;;1.60;;
63975;SDS011;50167;47.958;21.780;2023-04-25T11:15:06;5.43;;;1.70;;
63975;SDS011;50167;47.958;21.780;2023-04-25T11:17:33;2.90;;;1.43;;
63975;SDS011;50167;47.958;21.780;2023-04-25T11:20:00;1.53;;;1.30;;
63975;SDS011;50167;47.958;21.780;2023-04-25T11:22:29;1.53;;;1.20;;
63975;SDS011;50167;47.958;21.780;2023-04-25T11:24:56;4.57;;;2.00;;
63975;SDS011;50167;47.958;21.780;2023-04-25T11:27:23;2.33;;;1.30;;
63975;SDS011;50167;47.958;21.780;2023-04-25T11:29:50;2.13;;;1.00;;
63975;SDS011;50167;47.958;21.780;2023-04-25T11:32:17;2.90;;;1.77;;
63975;SDS011;50167;47.958;21.780;2023-04-25T11:34:44;5.27;;;1.03;;
63975;SDS011;50167;47.958;21.780;2023-04-25T11:37:10;1.17;;;1.07;;
63975;SDS011;50167;47.958;21.780;2023-04-25T11:39:37;2.90;;;1.40;;
63975;SDS011;50167;47.958;21.780;2023-04-25T11:42:13;2.23;;;0.80;;
63975;SDS011;50167;47.958;21.780;2023-04-25T11:44:45;1.97;;;1.20;;
63975;SDS011;50167;47.958;21.780;2023-04-25T11:47:12;2.03;;;1.70;;
63975;SDS011;50167;47.958;21.780;2023-04-25T11:49:38;1.23;;;1.00;;
63975;SDS011;50167;47.958;21.780;2023-04-25T11:52:05;2.97;;;1.70;;
63975;SDS011;50167;47.958;21.780;2023-04-25T11:54:37;1.43;;;1.30;;
63975;SDS011;50167;47.958;21.780;2023-04-25T11:57:03;4.43;;;1.50;;
63975;SDS011;50167;47.958;21.780;2023-04-25T11:59:32;1.37;;;1.27;;
63975;SDS011;50167;47.958;21.780;2023-04-25T12:01:59;1.10;;;1.00;;
63975;SDS011;50167;47.958;21.780;2023-04-25T12:04:29;3.37;;;2.87;;
63975;SDS011;50167;47.958;21.780;2023-04-25T12:06:57;1.80;;;1.35;;
63975;SDS011;50167;47.958;21.780;2023-04-25T12:09:37;7.93;;;5.53;;
63975;SDS011;50167;47.958;21.780;2023-04-25T12:12:05;4.77;;;3.60;;
63975;SDS011;50167;47.958;21.780;2023-04-25T12:14:33;2.70;;;1.73;;
63975;SDS011;50167;47.958;21.780;2023-04-25T12:17:02;2.40;;;1.20;;
63975;SDS011;50167;47.958;21.780;2023-04-25T12:24:11;2.08;;;1.40;;
63975;SDS011;50167;47.958;21.780;2023-04-25T12:29:30;2.20;;;1.10;;
63975;SDS011;50167;47.958;21.780;2023-04-25T12:31:58;2.30;;;1.60;;
63975;SDS011;50167;47.958;21.780;2023-04-25T12:34:27;1.93;;;1.47;;
63975;SDS011;50167;47.958;21.780;2023-04-25T12:36:53;4.17;;;1.43;;
63975;SDS011;50167;47.958;21.780;2023-04-25T12:39:21;1.93;;;1.53;;
63975;SDS011;50167;47.958;21.780;2023-04-25T12:44:20;2.47;;;1.37;;
63975;SDS011;50167;47.958;21.780;2023-04-25T12:46:47;2.00;;;1.00;;
63975;SDS011;50167;47.958;21.780;2023-04-25T12:49:14;1.60;;;1.30;;
63975;SDS011;50167;47.958;21.780;2023-04-25T12:51:40;1.33;;;0.90;;
63975;SDS011;50167;47.958;21.780;2023-04-25T12:54:07;0.97;;;0.83;;
63975;SDS011;50167;47.958;21.780;2023-04-25T12:56:33;1.43;;;1.10;;
63975;SDS011;50167;47.958;21.780;2023-04-25T12:59:00;3.00;;;1.10;;
63975;SDS011;50167;47.958;21.780;2023-04-25T13:01:31;2.40;;;0.98;;
63975;SDS011;50167;47.958;21.780;2023-04-25T13:03:57;0.80;;;0.80;;
63975;SDS011;50167;47.958;21.780;2023-04-25T13:06:23;2.20;;;0.87;;
63975;SDS011;50167;47.958;21.780;2023-04-25T13:08:49;0.70;;;0.70;;
63975;SDS011;50167;47.958;21.780;2023-04-25T13:11:16;1.33;;;1.23;;
63975;SDS011;50167;47.958;21.780;2023-04-25T13:13:42;1.30;;;1.00;;
63975;SDS011;50167;47.958;21.780;2023-04-25T13:16:10;3.70;;;1.00;;
63975;SDS011;50167;47.958;21.780;2023-04-25T13:18:38;1.10;;;0.60;;
63975;SDS011;50167;47.958;21.780;2023-04-25T13:21:05;1.13;;;0.80;;
63975;SDS011;50167;47.958;21.780;2023-04-25T13:23:31;1.67;;;0.90;;
63975;SDS011;50167;47.958;21.780;2023-04-25T13:25:57;1.10;;;1.00;;
63975;SDS011;50167;47.958;21.780;2023-04-25T13:28:26;0.70;;;0.70;;
63975;SDS011;50167;47.958;21.780;2023-04-25T13:30:53;2.17;;;0.70;;
63975;SDS011;50167;47.958;21.780;2023-04-25T13:33:20;1.07;;;0.80;;
63975;SDS011;50167;47.958;21.780;2023-04-25T13:35:48;1.43;;;0.70;;
63975;SDS011;50167;47.958;21.780;2023-04-25T13:38:27;0.90;;;0.70;;
63975;SDS011;50167;47.958;21.780;2023-04-25T13:40:55;1.23;;;0.70;;
63975;SDS011;50167;47.958;21.780;2023-04-25T13:43:22;0.70;;;0.70;;
63975;SDS011;50167;47.958;21.780;2023-04-25T13:45:48;0.60;;;0.60;;
63975;SDS011;50167;47.958;21.780;2023-04-25T13:48:18;2.58;;;1.12;;
63975;SDS011;50167;47.958;21.780;2023-04-25T13:55:04;0.73;;;0.73;;
63975;SDS011;50167;47.958;21.780;2023-04-25T13:57:32;1.47;;;1.13;;
63975;SDS011;50167;47.958;21.780;2023-04-25T13:59:59;0.83;;;0.80;;
63975;SDS011;50167;47.958;21.780;2023-04-25T14:02:28;2.47;;;1.27;;
63975;SDS011;50167;47.958;21.780;2023-04-25T14:04:54;1.60;;;0.80;;
63975;SDS011;50167;47.958;21.780;2023-04-25T14:07:20;2.07;;;1.30;;
63975;SDS011;50167;47.958;21.780;2023-04-25T14:09:49;0.60;;;0.60;;
63975;SDS011;50167;47.958;21.780;2023-04-25T14:12:15;0.83;;;0.70;;
63975;SDS011;50167;47.958;21.780;2023-04-25T14:14:42;1.27;;;0.70;;
63975;SDS011;50167;47.958;21.780;2023-04-25T14:17:08;1.13;;;0.80;;
63975;SDS011;50167;47.958;21.780;2023-04-25T14:19:35;0.77;;;0.70;;
63975;SDS011;50167;47.958;21.780;2023-04-25T14:22:02;1.40;;;0.97;;
63975;SDS011;50167;47.958;21.780;2023-04-25T14:24:29;1.30;;;1.20;;
63975;SDS011;50167;47.958;21.780;2023-04-25T14:26:55;1.40;;;1.00;;
63975;SDS011;50167;47.958;21.780;2023-04-25T14:29:21;1.67;;;1.03;;
63975;SDS011;50167;47.958;21.780;2023-04-25T14:31:47;3.07;;;0.97;;
63975;SDS011;50167;47.958;21.780;2023-04-25T14:34:14;0.80;;;0.70;;
63975;SDS011;50167;47.958;21.780;2023-04-25T14:36:40;2.67;;;1.53;;
63975;SDS011;50167;47.958;21.780;2023-04-25T14:39:07;1.10;;;1.00;;
63975;SDS011;50167;47.958;21.780;2023-04-25T14:41:34;1.80;;;1.33;;
63975;SDS011;50167;47.958;21.780;2023-04-25T14:44:00;2.40;;;1.70;;